METAR Data
IDs: Format: Raw Decoded Include TAF

Data at: 2151 UTC 23 Apr 2019

LKPR 232100Z 14013KT 9999 OVC016 10/07 Q1007 BECMG BKN012

TAF LKPR 231700Z 2318/2500 12012KT 9999 BKN027
  TEMPO 2318/2400 15016G30KT
  BECMG 2319/2321 CAVOK
  BECMG 2402/2404 13010KT
  PROB40
  TEMPO 2404/2423 15012G22KT